الصفحة الرئيسية
METAR-TAF:

METAR-TAF

مطار :

Kosrae, مايكرونيزيا

دائرة عرض: 05-21N, خط طول: 162-57E, ارتفاع: 3 متر

مراقبة الطقس الحالي

تاريخ ووقت الإصدار 13ساعات و 23 دقيقة قبل الساعة 23:50UTC
ريح 3 عقدة من الجنوب
درجة الحرارة 29°درجة مئوية
الرطوبة 84%
ضغط 1011 hPa
الرؤية: 16.1 كم
غيوم مفككة على ارتفاع 1900 قدم, مزن ركامية عمودية.
غيوم مفككة على ارتفاع 13000 قدم
غيوم مفككة على ارتفاع 30000 قدم

METAR: PTSA 292350Z 18003KT 10SM BKN019TCU BKN130 BKN300 29/26 A2984 RMK TCU NE LAST

زمن: 00:13 (13:13 UTC)

توقعات

تاريخ ووقت الإصدار 13ساعات و 50 دقيقة قبل الساعة 23:23UTC
التوقعات صالحة من30 الساعة 00 UTC إلى 30 الساعة 24 UTC
ريح 8 عقدة من الشرق/الجنوب الشرقي
الرؤية: 10 كم
غيوم مفككة على ارتفاع 1800 قدم
غيوم مفككة على ارتفاع 13000 قدم
زخات في الجوار
مؤقت
من 30 الساعة 00 UTC إلى 30 الساعة 03 UTC
الرؤية: 4.8 كم
غيوم متفرقة على ارتفاع 900 قدم
ملبد بالغيوم على ارتفاع 1800 قدم
زخات من المطر,

TAF: PTSA 292323Z 3000/3024 11008KT P6SM VCSH BKN018 BKN130 TEMPO 3000/3003 3SM SHRA SCT009 OVC018

أرصاد الطقس والتوقعات من أكثر من 4000 مطار (تقارير الطقس للمطار METAR والتنبؤ بالطقس بالمطارTAF).

المحطات المتاحة هي النقط الصفراء والحمراء على الخريطة.

حرك المؤشر فوق النقطة لمعرفة اسم المحطة.

ثم انقر لمعرفة أرصاد وتوقعات الطقس.

لتغيير الخارطة: اضغط على الأزرار الخضراء مع رمز الصليب الأسود للتكبير. على الزر الأخضر مع شرطة للتصغير، أو على الأسهم الخضراء للخرائط المجاورة.


METAR-TAF: